sensor_id;sensor_type;location;lat;lon;timestamp;P1;durP1;ratioP1;P2;durP2;ratioP2
49784;SDS011;35679;38.732;-121.358;2022-07-18T00:02:14;4.75;;;2.20;;
49784;SDS011;35679;38.732;-121.358;2022-07-18T00:05:05;7.47;;;2.85;;
49784;SDS011;35679;38.732;-121.358;2022-07-18T00:07:58;5.70;;;2.50;;
49784;SDS011;35679;38.732;-121.358;2022-07-18T00:10:48;5.90;;;2.45;;
49784;SDS011;35679;38.732;-121.358;2022-07-18T00:13:38;8.02;;;2.42;;
49784;SDS011;35679;38.732;-121.358;2022-07-18T00:16:29;4.18;;;2.47;;
49784;SDS011;35679;38.732;-121.358;2022-07-18T00:19:21;6.68;;;2.40;;
49784;SDS011;35679;38.732;-121.358;2022-07-18T00:22:11;5.15;;;2.30;;
49784;SDS011;35679;38.732;-121.358;2022-07-18T00:25:02;4.47;;;1.92;;
49784;SDS011;35679;38.732;-121.358;2022-07-18T00:27:53;3.38;;;2.50;;
49784;SDS011;35679;38.732;-121.358;2022-07-18T00:30:43;5.13;;;2.30;;
49784;SDS011;35679;38.732;-121.358;2022-07-18T00:33:33;5.15;;;2.13;;
49784;SDS011;35679;38.732;-121.358;2022-07-18T00:36:23;2.38;;;1.95;;
49784;SDS011;35679;38.732;-121.358;2022-07-18T00:39:13;3.45;;;2.00;;
49784;SDS011;35679;38.732;-121.358;2022-07-18T00:42:08;2.95;;;2.20;;
49784;SDS011;35679;38.732;-121.358;2022-07-18T00:44:59;4.10;;;2.20;;
49784;SDS011;35679;38.732;-121.358;2022-07-18T00:47:49;4.38;;;2.00;;
49784;SDS011;35679;38.732;-121.358;2022-07-18T00:50:42;5.22;;;2.25;;
49784;SDS011;35679;38.732;-121.358;2022-07-18T00:53:33;5.20;;;2.08;;
49784;SDS011;35679;38.732;-121.358;2022-07-18T00:56:23;3.72;;;2.00;;
49784;SDS011;35679;38.732;-121.358;2022-07-18T00:59:13;4.25;;;1.90;;
49784;SDS011;35679;38.732;-121.358;2022-07-18T01:02:04;2.67;;;2.10;;
49784;SDS011;35679;38.732;-121.358;2022-07-18T01:04:54;4.05;;;1.90;;
49784;SDS011;35679;38.732;-121.358;2022-07-18T01:07:45;7.47;;;2.42;;
49784;SDS011;35679;38.732;-121.358;2022-07-18T01:10:35;2.67;;;2.00;;
49784;SDS011;35679;38.732;-121.358;2022-07-18T01:13:25;3.15;;;1.77;;
49784;SDS011;35679;38.732;-121.358;2022-07-18T01:16:17;4.65;;;1.92;;
49784;SDS011;35679;38.732;-121.358;2022-07-18T01:19:09;4.67;;;1.77;;
49784;SDS011;35679;38.732;-121.358;2022-07-18T01:22:00;3.90;;;2.13;;
49784;SDS011;35679;38.732;-121.358;2022-07-18T01:24:50;6.55;;;1.75;;
49784;SDS011;35679;38.732;-121.358;2022-07-18T01:30:32;2.22;;;1.70;;
49784;SDS011;35679;38.732;-121.358;2022-07-18T01:33:23;3.60;;;1.70;;
49784;SDS011;35679;38.732;-121.358;2022-07-18T01:36:12;1.73;;;1.63;;
49784;SDS011;35679;38.732;-121.358;2022-07-18T01:39:06;3.85;;;1.90;;
49784;SDS011;35679;38.732;-121.358;2022-07-18T01:44:48;2.00;;;1.80;;
49784;SDS011;35679;38.732;-121.358;2022-07-18T01:47:42;2.58;;;1.70;;
49784;SDS011;35679;38.732;-121.358;2022-07-18T01:50:32;2.70;;;1.75;;
49784;SDS011;35679;38.732;-121.358;2022-07-18T01:53:24;1.85;;;1.75;;
49784;SDS011;35679;38.732;-121.358;2022-07-18T01:56:15;2.13;;;1.85;;
49784;SDS011;35679;38.732;-121.358;2022-07-18T01:59:07;2.03;;;1.60;;
49784;SDS011;35679;38.732;-121.358;2022-07-18T02:02:02;3.08;;;1.70;;
49784;SDS011;35679;38.732;-121.358;2022-07-18T02:04:57;1.70;;;1.55;;
49784;SDS011;35679;38.732;-121.358;2022-07-18T02:07:54;2.72;;;1.70;;
49784;SDS011;35679;38.732;-121.358;2022-07-18T02:10:46;2.60;;;1.60;;
49784;SDS011;35679;38.732;-121.358;2022-07-18T02:13:37;2.10;;;1.50;;
49784;SDS011;35679;38.732;-121.358;2022-07-18T02:19:19;2.10;;;1.80;;
49784;SDS011;35679;38.732;-121.358;2022-07-18T02:22:10;2.47;;;1.70;;
49784;SDS011;35679;38.732;-121.358;2022-07-18T02:25:01;1.85;;;1.70;;
49784;SDS011;35679;38.732;-121.358;2022-07-18T02:27:52;2.50;;;1.52;;
49784;SDS011;35679;38.732;-121.358;2022-07-18T02:30:44;5.22;;;1.70;;
49784;SDS011;35679;38.732;-121.358;2022-07-18T02:36:24;4.18;;;1.88;;
49784;SDS011;35679;38.732;-121.358;2022-07-18T02:42:07;1.90;;;1.40;;
49784;SDS011;35679;38.732;-121.358;2022-07-18T02:44:58;1.92;;;1.52;;
49784;SDS011;35679;38.732;-121.358;2022-07-18T02:47:48;1.90;;;1.60;;
49784;SDS011;35679;38.732;-121.358;2022-07-18T02:50:39;1.90;;;1.60;;
49784;SDS011;35679;38.732;-121.358;2022-07-18T02:53:32;1.70;;;1.60;;
49784;SDS011;35679;38.732;-121.358;2022-07-18T02:56:22;1.60;;;1.40;;
49784;SDS011;35679;38.732;-121.358;2022-07-18T02:59:13;2.35;;;1.48;;
49784;SDS011;35679;38.732;-121.358;2022-07-18T03:02:04;2.97;;;1.48;;
49784;SDS011;35679;38.732;-121.358;2022-07-18T03:04:54;2.97;;;1.60;;
49784;SDS011;35679;38.732;-121.358;2022-07-18T03:07:45;1.52;;;1.42;;
49784;SDS011;35679;38.732;-121.358;2022-07-18T03:10:36;1.70;;;1.60;;
49784;SDS011;35679;38.732;-121.358;2022-07-18T03:13:26;3.47;;;3.15;;
49784;SDS011;35679;38.732;-121.358;2022-07-18T03:19:08;3.58;;;3.28;;
49784;SDS011;35679;38.732;-121.358;2022-07-18T03:21:58;4.95;;;3.13;;
49784;SDS011;35679;38.732;-121.358;2022-07-18T03:24:49;3.00;;;2.80;;
49784;SDS011;35679;38.732;-121.358;2022-07-18T03:27:39;3.33;;;2.70;;
49784;SDS011;35679;38.732;-121.358;2022-07-18T03:30:30;4.70;;;2.40;;
49784;SDS011;35679;38.732;-121.358;2022-07-18T03:33:22;3.17;;;2.88;;
49784;SDS011;35679;38.732;-121.358;2022-07-18T03:36:13;3.13;;;2.83;;
49784;SDS011;35679;38.732;-121.358;2022-07-18T03:39:04;3.08;;;2.78;;
49784;SDS011;35679;38.732;-121.358;2022-07-18T03:41:56;4.93;;;2.72;;
49784;SDS011;35679;38.732;-121.358;2022-07-18T03:44:46;3.28;;;2.97;;
49784;SDS011;35679;38.732;-121.358;2022-07-18T03:47:38;7.05;;;2.97;;
49784;SDS011;35679;38.732;-121.358;2022-07-18T03:50:29;3.30;;;2.97;;
49784;SDS011;35679;38.732;-121.358;2022-07-18T03:53:19;4.20;;;2.88;;
49784;SDS011;35679;38.732;-121.358;2022-07-18T03:56:11;2.90;;;2.58;;
49784;SDS011;35679;38.732;-121.358;2022-07-18T03:59:02;4.90;;;2.80;;
49784;SDS011;35679;38.732;-121.358;2022-07-18T04:01:52;2.80;;;2.50;;
49784;SDS011;35679;38.732;-121.358;2022-07-18T04:04:43;4.00;;;2.70;;
49784;SDS011;35679;38.732;-121.358;2022-07-18T04:07:33;3.30;;;2.67;;
49784;SDS011;35679;38.732;-121.358;2022-07-18T04:10:25;2.70;;;2.50;;
49784;SDS011;35679;38.732;-121.358;2022-07-18T04:13:18;2.88;;;2.58;;
49784;SDS011;35679;38.732;-121.358;2022-07-18T04:16:10;2.90;;;2.65;;
49784;SDS011;35679;38.732;-121.358;2022-07-18T04:19:00;3.10;;;2.47;;
49784;SDS011;35679;38.732;-121.358;2022-07-18T04:21:51;3.58;;;3.00;;
49784;SDS011;35679;38.732;-121.358;2022-07-18T04:24:42;2.45;;;2.25;;
49784;SDS011;35679;38.732;-121.358;2022-07-18T04:27:40;3.58;;;2.63;;
49784;SDS011;35679;38.732;-121.358;2022-07-18T04:30:31;3.13;;;2.77;;
49784;SDS011;35679;38.732;-121.358;2022-07-18T04:33:22;3.33;;;2.70;;
49784;SDS011;35679;38.732;-121.358;2022-07-18T04:36:12;3.45;;;2.60;;
49784;SDS011;35679;38.732;-121.358;2022-07-18T04:39:04;4.45;;;2.80;;
49784;SDS011;35679;38.732;-121.358;2022-07-18T04:41:54;3.35;;;2.80;;
49784;SDS011;35679;38.732;-121.358;2022-07-18T04:44:46;5.28;;;3.15;;
49784;SDS011;35679;38.732;-121.358;2022-07-18T04:47:36;3.63;;;2.70;;
49784;SDS011;35679;38.732;-121.358;2022-07-18T04:50:26;3.50;;;3.10;;
49784;SDS011;35679;38.732;-121.358;2022-07-18T04:53:18;3.20;;;2.75;;
49784;SDS011;35679;38.732;-121.358;2022-07-18T04:56:10;5.15;;;2.67;;
49784;SDS011;35679;38.732;-121.358;2022-07-18T04:59:01;4.47;;;3.10;;
49784;SDS011;35679;38.732;-121.358;2022-07-18T05:01:51;4.82;;;3.05;;
49784;SDS011;35679;38.732;-121.358;2022-07-18T05:04:43;4.95;;;3.30;;
49784;SDS011;35679;38.732;-121.358;2022-07-18T05:07:34;4.00;;;3.20;;
49784;SDS011;35679;38.732;-121.358;2022-07-18T05:10:25;3.95;;;3.17;;
49784;SDS011;35679;38.732;-121.358;2022-07-18T05:13:14;4.95;;;3.30;;
49784;SDS011;35679;38.732;-121.358;2022-07-18T05:16:05;4.25;;;3.80;;
49784;SDS011;35679;38.732;-121.358;2022-07-18T05:18:57;4.57;;;3.33;;
49784;SDS011;35679;38.732;-121.358;2022-07-18T05:21:47;5.80;;;3.78;;
49784;SDS011;35679;38.732;-121.358;2022-07-18T05:24:38;3.73;;;3.20;;
49784;SDS011;35679;38.732;-121.358;2022-07-18T05:27:28;5.00;;;3.60;;
49784;SDS011;35679;38.732;-121.358;2022-07-18T05:30:19;7.23;;;4.47;;
49784;SDS011;35679;38.732;-121.358;2022-07-18T05:33:11;6.72;;;4.10;;
49784;SDS011;35679;38.732;-121.358;2022-07-18T05:36:01;5.82;;;4.15;;
49784;SDS011;35679;38.732;-121.358;2022-07-18T05:38:51;6.95;;;4.50;;
49784;SDS011;35679;38.732;-121.358;2022-07-18T05:41:44;6.28;;;4.50;;
49784;SDS011;35679;38.732;-121.358;2022-07-18T05:44:35;6.88;;;4.55;;
49784;SDS011;35679;38.732;-121.358;2022-07-18T05:47:25;5.85;;;4.45;;
49784;SDS011;35679;38.732;-121.358;2022-07-18T05:50:16;8.63;;;4.47;;
49784;SDS011;35679;38.732;-121.358;2022-07-18T05:53:06;6.82;;;4.45;;
49784;SDS011;35679;38.732;-121.358;2022-07-18T05:55:56;7.40;;;5.03;;
49784;SDS011;35679;38.732;-121.358;2022-07-18T05:58:47;6.60;;;4.47;;
49784;SDS011;35679;38.732;-121.358;2022-07-18T06:04:30;8.23;;;4.30;;
49784;SDS011;35679;38.732;-121.358;2022-07-18T06:07:22;6.20;;;4.22;;
49784;SDS011;35679;38.732;-121.358;2022-07-18T06:10:14;7.07;;;4.50;;
49784;SDS011;35679;38.732;-121.358;2022-07-18T06:13:03;8.05;;;5.22;;
49784;SDS011;35679;38.732;-121.358;2022-07-18T06:15:57;7.72;;;4.85;;
49784;SDS011;35679;38.732;-121.358;2022-07-18T06:18:49;7.45;;;4.82;;
49784;SDS011;35679;38.732;-121.358;2022-07-18T06:21:39;8.23;;;5.03;;
49784;SDS011;35679;38.732;-121.358;2022-07-18T06:24:31;7.47;;;5.40;;
49784;SDS011;35679;38.732;-121.358;2022-07-18T06:27:22;8.65;;;4.90;;
49784;SDS011;35679;38.732;-121.358;2022-07-18T06:30:13;7.60;;;4.93;;
49784;SDS011;35679;38.732;-121.358;2022-07-18T06:33:05;6.97;;;4.82;;
49784;SDS011;35679;38.732;-121.358;2022-07-18T06:36:00;7.40;;;4.95;;
49784;SDS011;35679;38.732;-121.358;2022-07-18T06:38:51;8.52;;;5.07;;
49784;SDS011;35679;38.732;-121.358;2022-07-18T06:41:42;6.90;;;5.22;;
49784;SDS011;35679;38.732;-121.358;2022-07-18T06:44:33;8.65;;;5.25;;
49784;SDS011;35679;38.732;-121.358;2022-07-18T06:47:23;9.15;;;4.90;;
49784;SDS011;35679;38.732;-121.358;2022-07-18T06:50:14;9.00;;;5.30;;
49784;SDS011;35679;38.732;-121.358;2022-07-18T06:53:06;8.63;;;5.13;;
49784;SDS011;35679;38.732;-121.358;2022-07-18T06:55:57;8.90;;;5.43;;
49784;SDS011;35679;38.732;-121.358;2022-07-18T06:58:48;8.90;;;5.67;;
49784;SDS011;35679;38.732;-121.358;2022-07-18T07:01:39;10.70;;;5.22;;
49784;SDS011;35679;38.732;-121.358;2022-07-18T07:04:30;8.25;;;5.03;;
49784;SDS011;35679;38.732;-121.358;2022-07-18T07:07:21;10.93;;;5.70;;
49784;SDS011;35679;38.732;-121.358;2022-07-18T07:10:13;9.75;;;5.45;;
49784;SDS011;35679;38.732;-121.358;2022-07-18T07:13:04;8.02;;;5.35;;
49784;SDS011;35679;38.732;-121.358;2022-07-18T07:15:58;8.00;;;5.00;;
49784;SDS011;35679;38.732;-121.358;2022-07-18T07:18:48;8.68;;;5.43;;
49784;SDS011;35679;38.732;-121.358;2022-07-18T07:21:39;9.43;;;5.60;;
49784;SDS011;35679;38.732;-121.358;2022-07-18T07:24:30;8.98;;;5.43;;
49784;SDS011;35679;38.732;-121.358;2022-07-18T07:27:20;7.75;;;5.28;;
49784;SDS011;35679;38.732;-121.358;2022-07-18T07:30:12;9.00;;;5.38;;
49784;SDS011;35679;38.732;-121.358;2022-07-18T07:33:03;8.48;;;5.15;;
49784;SDS011;35679;38.732;-121.358;2022-07-18T07:35:59;8.13;;;4.90;;
49784;SDS011;35679;38.732;-121.358;2022-07-18T07:38:50;9.30;;;5.30;;
49784;SDS011;35679;38.732;-121.358;2022-07-18T07:41:41;9.68;;;5.38;;
49784;SDS011;35679;38.732;-121.358;2022-07-18T07:44:32;9.85;;;5.97;;
49784;SDS011;35679;38.732;-121.358;2022-07-18T07:47:22;9.45;;;5.47;;
49784;SDS011;35679;38.732;-121.358;2022-07-18T07:50:13;9.93;;;6.20;;
49784;SDS011;35679;38.732;-121.358;2022-07-18T07:53:04;9.90;;;6.45;;
49784;SDS011;35679;38.732;-121.358;2022-07-18T07:55:55;8.77;;;5.65;;
49784;SDS011;35679;38.732;-121.358;2022-07-18T07:58:47;9.70;;;6.10;;
49784;SDS011;35679;38.732;-121.358;2022-07-18T08:01:38;10.95;;;5.97;;
49784;SDS011;35679;38.732;-121.358;2022-07-18T08:04:28;10.90;;;6.20;;
49784;SDS011;35679;38.732;-121.358;2022-07-18T08:07:18;9.63;;;5.82;;
49784;SDS011;35679;38.732;-121.358;2022-07-18T08:10:10;10.55;;;6.18;;
49784;SDS011;35679;38.732;-121.358;2022-07-18T08:13:00;10.55;;;5.88;;
49784;SDS011;35679;38.732;-121.358;2022-07-18T08:15:51;13.05;;;7.28;;
49784;SDS011;35679;38.732;-121.358;2022-07-18T08:18:41;12.65;;;6.38;;
49784;SDS011;35679;38.732;-121.358;2022-07-18T08:21:31;11.10;;;6.13;;
49784;SDS011;35679;38.732;-121.358;2022-07-18T08:24:22;9.98;;;6.00;;
49784;SDS011;35679;38.732;-121.358;2022-07-18T08:27:23;11.13;;;6.85;;
49784;SDS011;35679;38.732;-121.358;2022-07-18T08:30:14;13.23;;;7.07;;
49784;SDS011;35679;38.732;-121.358;2022-07-18T08:33:06;11.38;;;6.75;;
49784;SDS011;35679;38.732;-121.358;2022-07-18T08:35:57;10.90;;;6.50;;
49784;SDS011;35679;38.732;-121.358;2022-07-18T08:38:48;11.25;;;6.32;;
49784;SDS011;35679;38.732;-121.358;2022-07-18T08:41:40;9.93;;;6.53;;
49784;SDS011;35679;38.732;-121.358;2022-07-18T08:44:35;11.50;;;7.00;;
49784;SDS011;35679;38.732;-121.358;2022-07-18T08:47:29;12.38;;;6.82;;
49784;SDS011;35679;38.732;-121.358;2022-07-18T08:50:20;11.60;;;6.57;;
49784;SDS011;35679;38.732;-121.358;2022-07-18T08:53:12;11.63;;;6.43;;
49784;SDS011;35679;38.732;-121.358;2022-07-18T08:56:05;13.02;;;6.57;;
49784;SDS011;35679;38.732;-121.358;2022-07-18T08:58:56;10.73;;;6.28;;
49784;SDS011;35679;38.732;-121.358;2022-07-18T09:01:48;11.60;;;6.68;;
49784;SDS011;35679;38.732;-121.358;2022-07-18T09:04:40;11.60;;;6.68;;
49784;SDS011;35679;38.732;-121.358;2022-07-18T09:07:32;11.32;;;7.30;;
49784;SDS011;35679;38.732;-121.358;2022-07-18T09:10:40;12.27;;;7.50;;
49784;SDS011;35679;38.732;-121.358;2022-07-18T09:16:25;11.27;;;6.55;;
49784;SDS011;35679;38.732;-121.358;2022-07-18T09:19:17;11.80;;;7.05;;
49784;SDS011;35679;38.732;-121.358;2022-07-18T09:22:12;12.30;;;7.72;;
49784;SDS011;35679;38.732;-121.358;2022-07-18T09:25:09;12.48;;;7.05;;
49784;SDS011;35679;38.732;-121.358;2022-07-18T09:28:01;12.20;;;6.90;;
49784;SDS011;35679;38.732;-121.358;2022-07-18T09:30:58;12.32;;;6.65;;
49784;SDS011;35679;38.732;-121.358;2022-07-18T09:34:06;11.90;;;6.75;;
49784;SDS011;35679;38.732;-121.358;2022-07-18T09:36:58;13.07;;;7.13;;
49784;SDS011;35679;38.732;-121.358;2022-07-18T09:39:49;11.50;;;6.72;;
49784;SDS011;35679;38.732;-121.358;2022-07-18T09:42:43;11.43;;;6.57;;
49784;SDS011;35679;38.732;-121.358;2022-07-18T09:48:30;10.68;;;6.93;;
49784;SDS011;35679;38.732;-121.358;2022-07-18T09:51:22;12.32;;;7.35;;
49784;SDS011;35679;38.732;-121.358;2022-07-18T09:54:13;11.63;;;6.90;;
49784;SDS011;35679;38.732;-121.358;2022-07-18T09:57:33;11.82;;;7.00;;
49784;SDS011;35679;38.732;-121.358;2022-07-18T10:00:26;12.52;;;7.75;;
49784;SDS011;35679;38.732;-121.358;2022-07-18T10:03:21;12.45;;;7.50;;
49784;SDS011;35679;38.732;-121.358;2022-07-18T10:06:12;11.98;;;7.22;;
49784;SDS011;35679;38.732;-121.358;2022-07-18T10:09:04;11.15;;;6.85;;
49784;SDS011;35679;38.732;-121.358;2022-07-18T10:11:55;11.30;;;6.85;;
49784;SDS011;35679;38.732;-121.358;2022-07-18T10:14:50;12.07;;;7.57;;
49784;SDS011;35679;38.732;-121.358;2022-07-18T10:17:40;15.73;;;7.53;;
49784;SDS011;35679;38.732;-121.358;2022-07-18T10:23:41;11.73;;;7.18;;
49784;SDS011;35679;38.732;-121.358;2022-07-18T10:26:38;12.88;;;7.47;;
49784;SDS011;35679;38.732;-121.358;2022-07-18T10:29:30;13.88;;;7.90;;
49784;SDS011;35679;38.732;-121.358;2022-07-18T10:32:31;12.77;;;7.35;;
49784;SDS011;35679;38.732;-121.358;2022-07-18T10:44:54;11.27;;;7.40;;
49784;SDS011;35679;38.732;-121.358;2022-07-18T10:47:45;13.75;;;8.02;;
49784;SDS011;35679;38.732;-121.358;2022-07-18T10:54:07;13.82;;;7.70;;
49784;SDS011;35679;38.732;-121.358;2022-07-18T11:00:52;12.27;;;7.18;;
49784;SDS011;35679;38.732;-121.358;2022-07-18T11:03:18;11.32;;;6.53;;
49784;SDS011;35679;38.732;-121.358;2022-07-18T11:06:15;11.68;;;7.05;;
49784;SDS011;35679;38.732;-121.358;2022-07-18T11:12:43;13.20;;;6.88;;
49784;SDS011;35679;38.732;-121.358;2022-07-18T11:15:53;14.82;;;7.05;;
49784;SDS011;35679;38.732;-121.358;2022-07-18T11:21:35;13.95;;;7.32;;
49784;SDS011;35679;38.732;-121.358;2022-07-18T11:24:27;14.93;;;7.78;;
49784;SDS011;35679;38.732;-121.358;2022-07-18T11:27:18;14.82;;;7.00;;
49784;SDS011;35679;38.732;-121.358;2022-07-18T11:30:20;13.77;;;7.05;;
49784;SDS011;35679;38.732;-121.358;2022-07-18T11:33:25;14.15;;;7.18;;
49784;SDS011;35679;38.732;-121.358;2022-07-18T11:36:19;15.75;;;7.43;;
49784;SDS011;35679;38.732;-121.358;2022-07-18T11:39:12;15.75;;;7.22;;
49784;SDS011;35679;38.732;-121.358;2022-07-18T11:42:04;17.05;;;8.70;;
49784;SDS011;35679;38.732;-121.358;2022-07-18T11:44:58;14.07;;;7.18;;
49784;SDS011;35679;38.732;-121.358;2022-07-18T11:47:50;14.65;;;6.88;;
49784;SDS011;35679;38.732;-121.358;2022-07-18T11:50:42;14.63;;;7.65;;
49784;SDS011;35679;38.732;-121.358;2022-07-18T11:53:35;14.85;;;7.50;;
49784;SDS011;35679;38.732;-121.358;2022-07-18T11:56:26;13.80;;;7.03;;
49784;SDS011;35679;38.732;-121.358;2022-07-18T11:59:18;12.45;;;6.47;;
49784;SDS011;35679;38.732;-121.358;2022-07-18T12:02:08;11.00;;;5.97;;
49784;SDS011;35679;38.732;-121.358;2022-07-18T12:05:00;15.75;;;6.70;;
49784;SDS011;35679;38.732;-121.358;2022-07-18T12:07:50;11.43;;;6.43;;
49784;SDS011;35679;38.732;-121.358;2022-07-18T12:10:42;16.10;;;6.57;;
49784;SDS011;35679;38.732;-121.358;2022-07-18T12:16:40;10.05;;;5.97;;
49784;SDS011;35679;38.732;-121.358;2022-07-18T12:19:36;9.15;;;5.65;;
49784;SDS011;35679;38.732;-121.358;2022-07-18T12:22:28;10.98;;;5.78;;
49784;SDS011;35679;38.732;-121.358;2022-07-18T12:25:19;15.18;;;5.85;;
49784;SDS011;35679;38.732;-121.358;2022-07-18T12:31:05;11.27;;;5.90;;
49784;SDS011;35679;38.732;-121.358;2022-07-18T12:34:16;11.30;;;6.10;;
49784;SDS011;35679;38.732;-121.358;2022-07-18T12:37:07;15.77;;;6.05;;
49784;SDS011;35679;38.732;-121.358;2022-07-18T12:39:58;13.75;;;5.85;;
49784;SDS011;35679;38.732;-121.358;2022-07-18T12:43:11;14.20;;;5.70;;
49784;SDS011;35679;38.732;-121.358;2022-07-18T12:46:08;11.88;;;5.50;;
49784;SDS011;35679;38.732;-121.358;2022-07-18T12:48:59;11.55;;;5.93;;
49784;SDS011;35679;38.732;-121.358;2022-07-18T12:51:50;12.52;;;6.13;;
49784;SDS011;35679;38.732;-121.358;2022-07-18T12:54:42;10.45;;;5.85;;
49784;SDS011;35679;38.732;-121.358;2022-07-18T12:57:34;12.73;;;6.13;;
49784;SDS011;35679;38.732;-121.358;2022-07-18T13:00:25;13.73;;;5.80;;
49784;SDS011;35679;38.732;-121.358;2022-07-18T13:03:17;11.90;;;5.75;;
49784;SDS011;35679;38.732;-121.358;2022-07-18T13:06:07;16.02;;;5.88;;
49784;SDS011;35679;38.732;-121.358;2022-07-18T13:09:08;13.02;;;5.55;;
49784;SDS011;35679;38.732;-121.358;2022-07-18T13:11:58;13.07;;;5.60;;
49784;SDS011;35679;38.732;-121.358;2022-07-18T13:14:50;12.63;;;5.53;;
49784;SDS011;35679;38.732;-121.358;2022-07-18T13:17:40;11.75;;;5.43;;
49784;SDS011;35679;38.732;-121.358;2022-07-18T13:20:31;12.60;;;6.00;;
49784;SDS011;35679;38.732;-121.358;2022-07-18T13:23:22;14.60;;;6.10;;
49784;SDS011;35679;38.732;-121.358;2022-07-18T13:26:12;16.02;;;5.47;;
49784;SDS011;35679;38.732;-121.358;2022-07-18T13:29:05;10.90;;;5.45;;
49784;SDS011;35679;38.732;-121.358;2022-07-18T13:31:56;13.35;;;5.90;;
49784;SDS011;35679;38.732;-121.358;2022-07-18T13:34:48;9.70;;;5.65;;
49784;SDS011;35679;38.732;-121.358;2022-07-18T13:37:40;14.95;;;5.90;;
49784;SDS011;35679;38.732;-121.358;2022-07-18T13:40:32;14.27;;;5.85;;
49784;SDS011;35679;38.732;-121.358;2022-07-18T13:43:23;12.25;;;5.90;;
49784;SDS011;35679;38.732;-121.358;2022-07-18T13:46:14;12.00;;;5.97;;
49784;SDS011;35679;38.732;-121.358;2022-07-18T13:49:07;10.02;;;5.35;;
49784;SDS011;35679;38.732;-121.358;2022-07-18T13:52:01;13.75;;;5.57;;
49784;SDS011;35679;38.732;-121.358;2022-07-18T13:54:57;13.13;;;5.30;;
49784;SDS011;35679;38.732;-121.358;2022-07-18T13:57:48;11.30;;;5.38;;
49784;SDS011;35679;38.732;-121.358;2022-07-18T14:00:39;14.10;;;5.53;;
49784;SDS011;35679;38.732;-121.358;2022-07-18T14:03:30;11.95;;;5.97;;
49784;SDS011;35679;38.732;-121.358;2022-07-18T14:06:21;10.82;;;5.30;;
49784;SDS011;35679;38.732;-121.358;2022-07-18T14:09:11;13.27;;;5.88;;
49784;SDS011;35679;38.732;-121.358;2022-07-18T14:12:01;12.70;;;5.72;;
49784;SDS011;35679;38.732;-121.358;2022-07-18T14:14:52;12.35;;;5.90;;
49784;SDS011;35679;38.732;-121.358;2022-07-18T14:17:42;13.35;;;5.70;;
49784;SDS011;35679;38.732;-121.358;2022-07-18T14:20:34;11.48;;;5.45;;
49784;SDS011;35679;38.732;-121.358;2022-07-18T14:23:24;10.77;;;5.57;;
49784;SDS011;35679;38.732;-121.358;2022-07-18T14:26:14;11.40;;;6.15;;
49784;SDS011;35679;38.732;-121.358;2022-07-18T14:29:05;12.23;;;5.63;;
49784;SDS011;35679;38.732;-121.358;2022-07-18T14:31:54;11.68;;;5.43;;
49784;SDS011;35679;38.732;-121.358;2022-07-18T14:34:46;11.45;;;5.32;;
49784;SDS011;35679;38.732;-121.358;2022-07-18T14:37:38;15.03;;;6.37;;
49784;SDS011;35679;38.732;-121.358;2022-07-18T14:40:27;11.20;;;5.63;;
49784;SDS011;35679;38.732;-121.358;2022-07-18T14:43:17;12.80;;;5.55;;
49784;SDS011;35679;38.732;-121.358;2022-07-18T14:46:08;10.38;;;5.70;;
49784;SDS011;35679;38.732;-121.358;2022-07-18T14:48:59;11.27;;;5.20;;
49784;SDS011;35679;38.732;-121.358;2022-07-18T14:51:50;10.07;;;5.57;;
49784;SDS011;35679;38.732;-121.358;2022-07-18T14:54:42;9.00;;;5.70;;
49784;SDS011;35679;38.732;-121.358;2022-07-18T14:57:32;13.27;;;5.72;;
49784;SDS011;35679;38.732;-121.358;2022-07-18T15:00:22;9.38;;;5.35;;
49784;SDS011;35679;38.732;-121.358;2022-07-18T15:03:13;14.02;;;5.78;;
49784;SDS011;35679;38.732;-121.358;2022-07-18T15:06:24;11.68;;;5.72;;
49784;SDS011;35679;38.732;-121.358;2022-07-18T15:09:15;9.75;;;5.30;;
49784;SDS011;35679;38.732;-121.358;2022-07-18T15:12:05;10.35;;;5.40;;
49784;SDS011;35679;38.732;-121.358;2022-07-18T15:14:56;10.87;;;5.37;;
49784;SDS011;35679;38.732;-121.358;2022-07-18T15:20:39;11.85;;;5.45;;
49784;SDS011;35679;38.732;-121.358;2022-07-18T15:23:32;12.25;;;5.70;;
49784;SDS011;35679;38.732;-121.358;2022-07-18T15:26:22;12.68;;;5.65;;
49784;SDS011;35679;38.732;-121.358;2022-07-18T15:29:13;11.32;;;5.55;;
49784;SDS011;35679;38.732;-121.358;2022-07-18T15:32:03;11.88;;;5.47;;
49784;SDS011;35679;38.732;-121.358;2022-07-18T15:34:56;9.15;;;5.65;;
49784;SDS011;35679;38.732;-121.358;2022-07-18T15:37:45;9.00;;;5.35;;
49784;SDS011;35679;38.732;-121.358;2022-07-18T15:40:43;8.35;;;5.53;;
49784;SDS011;35679;38.732;-121.358;2022-07-18T15:43:32;9.65;;;5.43;;
49784;SDS011;35679;38.732;-121.358;2022-07-18T15:46:22;10.57;;;5.72;;
49784;SDS011;35679;38.732;-121.358;2022-07-18T15:49:12;7.15;;;4.70;;
49784;SDS011;35679;38.732;-121.358;2022-07-18T15:52:02;10.27;;;5.25;;
49784;SDS011;35679;38.732;-121.358;2022-07-18T15:54:54;9.57;;;5.32;;
49784;SDS011;35679;38.732;-121.358;2022-07-18T15:57:44;9.20;;;5.40;;
49784;SDS011;35679;38.732;-121.358;2022-07-18T16:00:33;9.23;;;5.28;;
49784;SDS011;35679;38.732;-121.358;2022-07-18T16:03:23;12.82;;;5.63;;
49784;SDS011;35679;38.732;-121.358;2022-07-18T16:06:13;8.10;;;5.10;;
49784;SDS011;35679;38.732;-121.358;2022-07-18T16:09:03;9.65;;;5.18;;
49784;SDS011;35679;38.732;-121.358;2022-07-18T16:11:52;9.10;;;5.38;;
49784;SDS011;35679;38.732;-121.358;2022-07-18T16:14:42;9.95;;;5.35;;
49784;SDS011;35679;38.732;-121.358;2022-07-18T16:17:31;9.18;;;5.18;;
49784;SDS011;35679;38.732;-121.358;2022-07-18T16:20:21;9.25;;;4.97;;
49784;SDS011;35679;38.732;-121.358;2022-07-18T16:23:10;9.73;;;5.20;;
49784;SDS011;35679;38.732;-121.358;2022-07-18T16:26:00;11.38;;;5.15;;
49784;SDS011;35679;38.732;-121.358;2022-07-18T16:28:50;10.30;;;5.00;;
49784;SDS011;35679;38.732;-121.358;2022-07-18T16:31:39;8.90;;;4.82;;
49784;SDS011;35679;38.732;-121.358;2022-07-18T16:34:29;9.98;;;5.82;;
49784;SDS011;35679;38.732;-121.358;2022-07-18T16:37:19;10.60;;;5.65;;
49784;SDS011;35679;38.732;-121.358;2022-07-18T16:40:09;8.73;;;5.18;;
49784;SDS011;35679;38.732;-121.358;2022-07-18T16:42:59;8.68;;;5.25;;
49784;SDS011;35679;38.732;-121.358;2022-07-18T16:45:49;9.95;;;4.97;;
49784;SDS011;35679;38.732;-121.358;2022-07-18T16:48:39;8.15;;;4.63;;
49784;SDS011;35679;38.732;-121.358;2022-07-18T16:51:29;9.90;;;5.35;;
49784;SDS011;35679;38.732;-121.358;2022-07-18T16:54:19;9.07;;;4.90;;
49784;SDS011;35679;38.732;-121.358;2022-07-18T16:57:09;8.98;;;5.22;;
49784;SDS011;35679;38.732;-121.358;2022-07-18T16:59:59;9.07;;;5.38;;
49784;SDS011;35679;38.732;-121.358;2022-07-18T17:02:57;9.02;;;5.15;;
49784;SDS011;35679;38.732;-121.358;2022-07-18T17:05:50;8.95;;;5.00;;
49784;SDS011;35679;38.732;-121.358;2022-07-18T17:08:39;9.98;;;4.82;;
49784;SDS011;35679;38.732;-121.358;2022-07-18T17:11:29;9.60;;;5.85;;
49784;SDS011;35679;38.732;-121.358;2022-07-18T17:14:24;6.82;;;4.80;;
49784;SDS011;35679;38.732;-121.358;2022-07-18T17:17:14;8.00;;;4.70;;
49784;SDS011;35679;38.732;-121.358;2022-07-18T17:20:04;9.02;;;4.93;;
49784;SDS011;35679;38.732;-121.358;2022-07-18T17:22:54;8.27;;;5.30;;
49784;SDS011;35679;38.732;-121.358;2022-07-18T17:25:46;9.52;;;5.03;;